Time,TemperatureF,DewpointF,PressureIn,WindDirection,WindDirectionDegrees,WindSpeedMPH,WindSpeedGustMPH,Humidity,HourlyPrecipIn,Conditions,Clouds,dailyrainin,SoftwareType,DateUTC
2013-01-16 00:00:00,30.7,21.1,30.24,NNE,22,1.0,4.0,67,0.00,,---,0.00,VWS V13.01,2013-01-16 05:00:00,
2013-01-16 00:30:00,30.5,21.2,30.25,NNE,22,0.0,3.0,68,0.00,,---,0.00,VWS V13.01,2013-01-16 05:30:00,
2013-01-16 01:00:00,30.2,21.3,30.25,NNE,22,0.0,2.0,69,0.00,,---,0.00,VWS V13.01,2013-01-16 06:00:00,
2013-01-16 01:30:00,29.8,20.9,30.25,NNE,22,0.0,2.0,69,0.00,,---,0.00,VWS V13.01,2013-01-16 06:30:00,
2013-01-16 02:00:00,29.7,20.5,30.24,NNE,22,0.0,2.0,68,0.00,,---,0.00,VWS V13.01,2013-01-16 07:00:00,
2013-01-16 02:30:00,29.6,21.0,30.25,NNE,22,0.0,1.0,70,0.00,,---,0.00,VWS V13.01,2013-01-16 07:30:00,
2013-01-16 03:00:00,29.3,21.4,30.23,NNE,22,0.0,1.0,72,0.00,,---,0.00,VWS V13.01,2013-01-16 08:00:00,
2013-01-16 03:30:00,29.3,21.7,30.22,NNE,22,0.0,1.0,73,0.00,,---,0.00,VWS V13.01,2013-01-16 08:30:00,
2013-01-16 04:00:00,29.0,21.4,30.20,NNE,22,0.0,0.0,73,0.00,,---,0.00,VWS V13.01,2013-01-16 09:00:00,
2013-01-16 04:30:00,29.0,21.1,30.18,NNE,22,0.0,0.0,72,0.00,,---,0.00,VWS V13.01,2013-01-16 09:30:00,
2013-01-16 05:00:00,29.2,22.0,30.16,NNE,22,0.0,2.0,74,0.00,,---,0.00,VWS V13.01,2013-01-16 10:00:00,
2013-01-16 05:30:00,29.2,21.0,30.15,NNE,22,0.0,2.0,71,0.00,,---,0.00,VWS V13.01,2013-01-16 10:30:00,
2013-01-16 06:00:00,29.5,21.6,30.15,NNE,22,0.0,2.0,72,0.00,,---,0.00,VWS V13.01,2013-01-16 11:00:00,
2013-01-16 06:30:00,29.8,23.8,30.14,NNE,22,0.0,3.0,78,0.00,,---,0.00,VWS V13.01,2013-01-16 11:30:00,
2013-01-16 07:00:00,29.0,24.8,30.13,North,0,1.0,4.0,84,0.00,,---,0.00,VWS V13.01,2013-01-16 12:00:00,
2013-01-16 07:04:00,28.6,24.7,30.13,North,11,0.0,1.0,85,0.00,,---,0.00,VWS V13.01,2013-01-16 12:04:00,
2013-01-16 07:09:00,28.5,24.6,30.13,North,11,1.0,3.0,85,0.00,,---,0.00,VWS V13.01,2013-01-16 12:09:00,
2013-01-16 07:14:00,28.5,24.9,30.12,North,9,0.0,3.0,86,0.00,,---,0.00,VWS V13.01,2013-01-16 12:14:00,
2013-01-16 07:19:00,28.5,24.9,30.12,North,9,3.0,3.0,86,0.00,,---,0.00,VWS V13.01,2013-01-16 12:19:00,
2013-01-16 07:24:00,28.5,24.9,30.12,North,9,1.0,3.0,86,0.00,,---,0.00,VWS V13.01,2013-01-16 12:24:00,
2013-01-16 07:29:00,28.4,24.8,30.11,North,9,0.0,3.0,86,0.00,,---,0.00,VWS V13.01,2013-01-16 12:29:00,
2013-01-16 07:30:00,28.5,24.9,30.12,North,9,1.0,3.0,86,0.00,,---,0.00,VWS V13.01,2013-01-16 12:30:00,
2013-01-16 07:34:00,28.5,25.1,30.11,North,9,2.0,3.0,87,0.00,,---,0.00,VWS V13.01,2013-01-16 12:34:00,
2013-01-16 07:39:00,28.4,25.0,30.12,North,9,1.0,3.0,87,0.00,,---,0.00,VWS V13.01,2013-01-16 12:39:00,
2013-01-16 07:44:00,28.5,25.1,30.12,North,9,0.0,3.0,87,0.00,,---,0.00,VWS V13.01,2013-01-16 12:44:00,
2013-01-16 07:49:00,28.5,25.1,30.12,North,9,1.0,3.0,87,0.00,,---,0.00,VWS V13.01,2013-01-16 12:49:00,
2013-01-16 07:54:00,28.6,25.2,30.11,North,9,0.0,3.0,87,0.00,,---,0.00,VWS V13.01,2013-01-16 12:54:00,
2013-01-16 07:59:00,28.6,25.2,30.11,North,9,0.0,2.0,87,0.00,,---,0.00,VWS V13.01,2013-01-16 12:59:00,
2013-01-16 08:00:00,28.5,25.1,30.11,North,9,0.0,3.0,87,0.00,,---,0.00,VWS V13.01,2013-01-16 13:00:00,
2013-01-16 08:04:00,28.5,25.1,30.11,North,9,0.0,2.0,87,0.00,,---,0.00,VWS V13.01,2013-01-16 13:04:00,
2013-01-16 08:09:00,28.5,25.4,30.11,North,9,0.0,3.0,88,0.00,,---,0.00,VWS V13.01,2013-01-16 13:09:00,
2013-01-16 08:14:00,28.5,25.4,30.11,North,5,1.0,3.0,88,0.00,,---,0.00,VWS V13.01,2013-01-16 13:14:00,
2013-01-16 08:19:00,28.5,25.4,30.11,NW,314,0.0,3.0,88,0.00,,---,0.00,VWS V13.01,2013-01-16 13:19:00,
2013-01-16 08:24:00,28.5,25.4,30.11,NW,314,0.0,3.0,88,0.00,,---,0.00,VWS V13.01,2013-01-16 13:24:00,
2013-01-16 08:29:00,28.6,25.5,30.12,NW,314,1.0,2.0,88,0.00,,---,0.00,VWS V13.01,2013-01-16 13:29:00,
2013-01-16 08:30:00,28.6,25.5,30.11,NW,314,0.0,3.0,88,0.00,,---,0.00,VWS V13.01,2013-01-16 13:30:00,
2013-01-16 08:34:00,28.7,25.6,30.12,NW,314,0.0,2.0,88,0.00,,---,0.00,VWS V13.01,2013-01-16 13:34:00,
2013-01-16 08:39:00,28.8,25.7,30.12,NW,310,0.0,3.0,88,0.00,,---,0.00,VWS V13.01,2013-01-16 13:39:00,
2013-01-16 08:44:00,28.8,25.7,30.11,NW,310,0.0,3.0,88,0.00,,---,0.00,VWS V13.01,2013-01-16 13:44:00,
2013-01-16 08:49:00,28.7,25.6,30.10,NW,319,0.0,3.0,88,0.00,,---,0.00,VWS V13.01,2013-01-16 13:49:00,
2013-01-16 08:54:00,28.7,25.6,30.11,NW,319,0.0,3.0,88,0.00,,---,0.00,VWS V13.01,2013-01-16 13:54:00,
2013-01-16 08:59:00,28.6,25.5,30.11,NW,319,0.0,2.0,88,0.00,,---,0.00,VWS V13.01,2013-01-16 13:59:00,
2013-01-16 09:00:00,28.7,25.6,30.11,NW,319,0.0,3.0,88,0.00,,---,0.00,VWS V13.01,2013-01-16 14:00:00,
2013-01-16 09:04:00,28.5,25.4,30.11,NW,319,0.0,2.0,88,0.00,,---,0.00,VWS V13.01,2013-01-16 14:04:00,
2013-01-16 09:09:00,28.5,25.4,30.10,NW,319,0.0,2.0,88,0.00,,---,0.00,VWS V13.01,2013-01-16 14:09:00,
2013-01-16 09:14:00,28.5,25.4,30.10,NW,319,1.0,2.0,88,0.00,,---,0.00,VWS V13.01,2013-01-16 14:14:00,
2013-01-16 09:19:00,28.5,25.4,30.09,NW,319,0.0,2.0,88,0.00,,---,0.00,VWS V13.01,2013-01-16 14:19:00,
2013-01-16 09:24:00,28.5,25.4,30.09,NW,319,0.0,2.0,88,0.00,,---,0.00,VWS V13.01,2013-01-16 14:24:00,
2013-01-16 09:29:00,28.5,25.4,30.09,NW,319,0.0,1.0,88,0.00,,---,0.00,VWS V13.01,2013-01-16 14:29:00,
2013-01-16 09:30:00,28.5,25.4,30.09,NW,319,0.0,2.0,88,0.00,,---,0.00,VWS V13.01,2013-01-16 14:30:00,
2013-01-16 09:34:00,28.6,25.5,30.07,NW,319,0.0,1.0,88,0.00,,---,0.00,VWS V13.01,2013-01-16 14:34:00,
2013-01-16 09:39:00,28.8,26.0,30.07,NW,319,0.0,1.0,89,0.00,,---,0.00,VWS V13.01,2013-01-16 14:39:00,
2013-01-16 09:44:00,28.9,26.1,30.07,NW,319,0.0,1.0,89,0.00,,---,0.00,VWS V13.01,2013-01-16 14:44:00,
2013-01-16 09:49:00,29.0,26.2,30.07,NW,319,0.0,2.0,89,0.00,,---,0.00,VWS V13.01,2013-01-16 14:49:00,
2013-01-16 09:54:00,29.0,26.2,30.07,NW,319,0.0,2.0,89,0.00,,---,0.00,VWS V13.01,2013-01-16 14:54:00,
2013-01-16 09:59:00,29.1,26.3,30.07,NW,319,0.0,1.0,89,0.00,,---,0.00,VWS V13.01,2013-01-16 14:59:00,
2013-01-16 10:00:00,29.0,26.2,30.07,NW,319,0.0,2.0,89,0.00,,---,0.00,VWS V13.01,2013-01-16 15:00:00,
2013-01-16 10:04:00,29.2,26.4,30.06,NW,319,0.0,2.0,89,0.00,,---,0.00,VWS V13.01,2013-01-16 15:04:00,
2013-01-16 10:09:00,29.2,26.4,30.06,NW,321,0.0,2.0,89,0.00,,---,0.00,VWS V13.01,2013-01-16 15:09:00,
2013-01-16 10:14:00,29.2,26.4,30.05,NW,314,1.0,3.0,89,0.00,,---,0.00,VWS V13.01,2013-01-16 15:14:00,
2013-01-16 10:19:00,29.2,26.4,30.04,NW,315,0.0,3.0,89,0.00,,---,0.00,VWS V13.01,2013-01-16 15:19:00,
2013-01-16 10:24:00,29.3,26.5,30.04,North,360,1.0,3.0,89,0.00,,---,0.00,VWS V13.01,2013-01-16 15:24:00,
2013-01-16 10:29:00,29.2,26.4,30.04,NNE,24,1.0,3.0,89,0.00,,---,0.00,VWS V13.01,2013-01-16 15:29:00,
2013-01-16 10:30:00,29.3,26.5,30.04,NNW,338,2.0,3.0,89,0.00,,---,0.00,VWS V13.01,2013-01-16 15:30:00,
2013-01-16 10:34:00,29.3,26.5,30.03,NNE,24,0.0,3.0,89,0.00,,---,0.00,VWS V13.01,2013-01-16 15:34:00,
2013-01-16 10:39:00,29.3,26.5,30.02,NNE,25,0.0,3.0,89,0.00,,---,0.00,VWS V13.01,2013-01-16 15:39:00,
2013-01-16 10:44:00,29.4,26.6,30.02,NNW,346,1.0,3.0,89,0.00,,---,0.00,VWS V13.01,2013-01-16 15:44:00,
2013-01-16 10:49:00,29.5,26.7,30.01,NNE,21,2.0,3.0,89,0.00,,---,0.00,VWS V13.01,2013-01-16 15:49:00,
2013-01-16 10:54:00,29.5,26.7,30.03,North,349,0.0,3.0,89,0.00,,---,0.00,VWS V13.01,2013-01-16 15:54:00,
2013-01-16 10:59:00,29.6,26.8,30.01,North,349,0.0,2.0,89,0.00,,---,0.00,VWS V13.01,2013-01-16 15:59:00,
2013-01-16 11:00:00,29.5,26.7,30.02,North,349,2.0,3.0,89,0.00,,---,0.00,VWS V13.01,2013-01-16 16:00:00,
2013-01-16 11:04:00,29.6,26.8,30.02,North,349,0.0,2.0,89,0.00,,---,0.00,VWS V13.01,2013-01-16 16:04:00,
2013-01-16 11:16:00,29.8,27.0,30.01,North,349,0.0,0.0,89,0.00,,---,0.00,VWS V13.01,2013-01-16 16:16:00,
2013-01-16 11:21:00,29.8,27.0,30.00,North,349,0.0,0.0,89,0.00,,---,0.00,VWS V13.01,2013-01-16 16:21:00,
2013-01-16 11:26:00,29.9,26.8,30.00,North,5,0.0,0.0,88,0.00,,---,0.00,VWS V13.01,2013-01-16 16:26:00,
2013-01-16 11:30:00,29.9,26.8,30.00,North,5,0.0,0.0,88,0.00,,---,0.00,VWS V13.01,2013-01-16 16:30:00,
2013-01-16 11:31:00,29.9,27.1,29.98,North,360,0.0,0.0,89,0.00,,---,0.00,VWS V13.01,2013-01-16 16:31:00,
2013-01-16 11:36:00,29.9,27.1,29.97,NNE,22,0.0,0.0,89,0.00,,---,0.00,VWS V13.01,2013-01-16 16:36:00,
2013-01-16 11:41:00,29.9,26.8,29.97,NNE,23,0.0,0.0,88,0.00,,---,0.00,VWS V13.01,2013-01-16 16:41:00,
2013-01-16 11:46:00,30.0,27.2,29.97,NNE,17,0.0,0.0,89,0.00,,---,0.00,VWS V13.01,2013-01-16 16:46:00,
2013-01-16 11:51:00,30.1,27.3,29.97,NNE,17,0.0,0.0,89,0.00,,---,0.00,VWS V13.01,2013-01-16 16:51:00,
2013-01-16 11:56:00,30.2,27.4,29.96,NNE,17,0.0,0.0,89,0.00,,---,0.00,VWS V13.01,2013-01-16 16:56:00,
2013-01-16 12:00:00,30.2,27.4,29.96,NNE,17,0.0,0.0,89,0.00,,---,0.00,VWS V13.01,2013-01-16 17:00:00,
2013-01-16 12:01:00,30.2,27.4,29.96,North,11,0.0,0.0,89,0.00,,---,0.00,VWS V13.01,2013-01-16 17:01:00,
2013-01-16 12:06:00,30.2,27.4,29.95,North,5,0.0,0.0,89,0.00,,---,0.00,VWS V13.01,2013-01-16 17:06:00,
2013-01-16 12:11:00,30.2,27.4,29.96,North,360,0.0,0.0,89,0.00,,---,0.00,VWS V13.01,2013-01-16 17:11:00,
2013-01-16 12:16:00,30.3,27.5,29.95,North,360,0.0,0.0,89,0.00,,---,0.00,VWS V13.01,2013-01-16 17:16:00,
2013-01-16 12:21:00,30.3,27.5,29.96,North,5,0.0,0.0,89,0.00,,---,0.00,VWS V13.01,2013-01-16 17:21:00,
2013-01-16 12:26:00,30.4,27.5,29.95,North,5,0.0,0.0,89,0.00,,---,0.00,VWS V13.01,2013-01-16 17:26:00,
2013-01-16 12:30:00,30.4,27.5,29.95,North,5,0.0,0.0,89,0.00,,---,0.00,VWS V13.01,2013-01-16 17:30:00,
2013-01-16 12:31:00,30.3,27.2,29.95,NNE,24,0.0,0.0,88,0.00,,---,0.00,VWS V13.01,2013-01-16 17:31:00,
2013-01-16 12:36:00,30.3,27.5,29.95,NNE,24,0.0,0.0,89,0.00,,---,0.00,VWS V13.01,2013-01-16 17:36:00,
2013-01-16 12:41:00,30.3,27.5,29.94,NNE,24,0.0,0.0,89,0.00,,---,0.00,VWS V13.01,2013-01-16 17:41:00,
2013-01-16 12:46:00,30.2,27.4,29.94,NNE,24,0.0,0.0,89,0.00,,---,0.00,VWS V13.01,2013-01-16 17:46:00,
2013-01-16 12:51:00,30.2,27.4,29.93,NNE,21,0.0,0.0,89,0.00,,---,0.00,VWS V13.01,2013-01-16 17:51:00,
2013-01-16 12:56:00,30.1,27.3,29.93,NNE,21,0.0,0.0,89,0.00,,---,0.00,VWS V13.01,2013-01-16 17:56:00,
2013-01-16 13:00:00,30.1,27.3,29.93,NNE,21,0.0,0.0,89,0.00,,---,0.00,VWS V13.01,2013-01-16 18:00:00,
2013-01-16 13:01:00,30.1,27.3,29.93,NNE,20,0.0,0.0,89,0.00,,---,0.00,VWS V13.01,2013-01-16 18:01:00,
2013-01-16 13:06:00,30.1,27.3,29.93,NNE,15,0.0,0.0,89,0.00,,---,0.00,VWS V13.01,2013-01-16 18:06:00,
2013-01-16 13:11:00,30.1,27.3,29.93,NNE,15,0.0,0.0,89,0.00,,---,0.00,VWS V13.01,2013-01-16 18:11:00,
2013-01-16 13:16:00,30.1,27.3,29.92,NNE,13,0.0,0.0,89,0.00,,---,0.00,VWS V13.01,2013-01-16 18:16:00,
2013-01-16 13:21:00,30.1,27.3,29.92,NNE,13,0.0,0.0,89,0.00,,---,0.00,VWS V13.01,2013-01-16 18:21:00,
2013-01-16 13:26:00,30.1,27.3,29.92,NNE,13,0.0,0.0,89,0.00,,---,0.00,VWS V13.01,2013-01-16 18:26:00,
2013-01-16 13:30:00,30.1,27.3,29.92,NNE,13,0.0,0.0,89,0.00,,---,0.00,VWS V13.01,2013-01-16 18:30:00,
2013-01-16 13:31:00,30.1,27.3,29.92,NNE,13,0.0,0.0,89,0.00,,---,0.00,VWS V13.01,2013-01-16 18:31:00,
2013-01-16 13:36:00,30.1,27.3,29.91,NNE,13,0.0,0.0,89,0.00,,---,0.00,VWS V13.01,2013-01-16 18:36:00,
2013-01-16 13:41:00,30.2,27.4,29.91,NNE,29,0.0,0.0,89,0.00,,---,0.00,VWS V13.01,2013-01-16 18:41:00,
2013-01-16 13:46:00,30.2,27.4,29.90,NNE,23,0.0,0.0,89,0.00,,---,0.00,VWS V13.01,2013-01-16 18:46:00,
2013-01-16 13:50:00,30.2,27.4,29.90,NNE,22,0.0,0.0,89,0.00,,---,0.00,VWS V13.01,2013-01-16 18:50:00,
2013-01-16 13:55:00,30.2,27.4,29.90,North,360,0.0,0.0,89,0.00,,---,0.00,VWS V13.01,2013-01-16 18:55:00,
2013-01-16 14:00:00,30.2,27.4,29.90,North,5,0.0,0.0,89,0.00,,---,0.00,VWS V13.01,2013-01-16 19:00:00,
2013-01-16 14:01:00,30.2,27.4,29.89,North,360,0.0,0.0,89,0.00,,---,0.00,VWS V13.01,2013-01-16 19:01:00,
2013-01-16 14:06:00,30.2,27.4,29.89,North,5,0.0,0.0,89,0.00,,---,0.00,VWS V13.01,2013-01-16 19:06:00,
2013-01-16 14:11:00,30.3,27.5,29.88,North,5,0.0,0.0,89,0.00,,---,0.00,VWS V13.01,2013-01-16 19:11:00,
2013-01-16 14:16:00,30.3,27.5,29.87,North,5,0.0,0.0,89,0.00,,---,0.00,VWS V13.01,2013-01-16 19:16:00,
2013-01-16 14:21:00,30.3,27.5,29.87,North,360,0.0,0.0,89,0.00,,---,0.00,VWS V13.01,2013-01-16 19:21:00,
2013-01-16 14:26:00,30.4,27.5,29.86,North,360,0.0,0.0,89,0.00,,---,0.00,VWS V13.01,2013-01-16 19:26:00,
2013-01-16 14:30:00,30.4,27.5,29.86,North,360,0.0,0.0,89,0.00,,---,0.00,VWS V13.01,2013-01-16 19:30:00,
2013-01-16 14:31:00,30.3,27.5,29.86,North,5,0.0,0.0,89,0.00,,---,0.00,VWS V13.01,2013-01-16 19:31:00,
2013-01-16 14:36:00,30.4,27.5,29.85,North,5,0.0,0.0,89,0.00,,---,0.00,VWS V13.01,2013-01-16 19:36:00,
2013-01-16 14:41:00,30.4,27.5,29.87,NNW,348,0.0,0.0,89,0.00,,---,0.00,VWS V13.01,2013-01-16 19:41:00,
2013-01-16 14:46:00,30.3,27.5,29.87,North,355,0.0,0.0,89,0.00,,---,0.00,VWS V13.01,2013-01-16 19:46:00,
2013-01-16 14:51:00,30.4,27.5,29.87,North,355,0.0,0.0,89,0.00,,---,0.00,VWS V13.01,2013-01-16 19:51:00,
2013-01-16 14:56:00,30.4,27.5,29.87,North,355,0.0,0.0,89,0.00,,---,0.00,VWS V13.01,2013-01-16 19:56:00,
2013-01-16 15:00:00,30.4,27.5,29.87,North,355,0.0,0.0,89,0.00,,---,0.00,VWS V13.01,2013-01-16 20:00:00,
2013-01-16 15:01:00,30.4,27.5,29.87,North,355,0.0,0.0,89,0.00,,---,0.00,VWS V13.01,2013-01-16 20:01:00,
2013-01-16 15:06:00,30.5,27.6,29.86,North,355,0.0,0.0,89,0.00,,---,0.00,VWS V13.01,2013-01-16 20:06:00,
2013-01-16 15:11:00,30.5,27.6,29.85,North,355,0.0,0.0,89,0.00,,---,0.00,VWS V13.01,2013-01-16 20:11:00,
2013-01-16 15:16:00,30.4,27.5,29.85,North,350,0.0,0.0,89,0.00,,---,0.00,VWS V13.01,2013-01-16 20:16:00,
2013-01-16 15:21:00,30.3,27.5,29.85,North,350,0.0,0.0,89,0.00,,---,0.00,VWS V13.01,2013-01-16 20:21:00,
2013-01-16 15:26:00,30.3,27.5,29.86,North,350,0.0,0.0,89,0.00,,---,0.00,VWS V13.01,2013-01-16 20:26:00,
2013-01-16 15:30:00,30.3,27.5,29.86,North,350,0.0,0.0,89,0.00,,---,0.00,VWS V13.01,2013-01-16 20:30:00,
2013-01-16 15:31:00,30.3,27.5,29.86,North,350,0.0,0.0,89,0.00,,---,0.00,VWS V13.01,2013-01-16 20:31:00,
2013-01-16 15:36:00,30.3,27.5,29.86,North,349,0.0,0.0,89,0.00,,---,0.00,VWS V13.01,2013-01-16 20:36:00,
2013-01-16 15:41:00,30.2,27.4,29.85,North,350,0.0,0.0,89,0.00,,---,0.00,VWS V13.01,2013-01-16 20:41:00,
2013-01-16 15:46:00,30.2,27.4,29.85,North,350,0.0,0.0,89,0.00,,---,0.00,VWS V13.01,2013-01-16 20:46:00,
2013-01-16 15:51:00,30.1,27.3,29.84,North,350,0.0,0.0,89,0.00,,---,0.00,VWS V13.01,2013-01-16 20:51:00,
2013-01-16 15:56:00,30.1,27.3,29.84,North,349,0.0,0.0,89,0.00,,---,0.00,VWS V13.01,2013-01-16 20:56:00,
2013-01-16 16:00:00,30.1,27.3,29.84,North,349,0.0,0.0,89,0.00,,---,0.00,VWS V13.01,2013-01-16 21:00:00,
2013-01-16 16:01:00,30.0,27.2,29.84,North,350,0.0,0.0,89,0.00,,---,0.00,VWS V13.01,2013-01-16 21:01:00,
2013-01-16 16:06:00,29.9,27.1,29.84,North,350,0.0,0.0,89,0.00,,---,0.00,VWS V13.01,2013-01-16 21:06:00,
2013-01-16 16:10:00,29.9,27.1,29.84,North,350,0.0,0.0,89,0.00,,---,0.00,VWS V13.01,2013-01-16 21:10:00,
2013-01-16 16:15:00,29.9,27.1,29.84,North,350,0.0,0.0,89,0.00,,---,0.00,VWS V13.01,2013-01-16 21:15:00,
2013-01-16 16:20:00,29.8,27.0,29.84,North,349,0.0,0.0,89,0.00,,---,0.00,VWS V13.01,2013-01-16 21:20:00,
2013-01-16 16:25:00,29.7,26.9,29.86,North,350,0.0,0.0,89,0.00,,---,0.00,VWS V13.01,2013-01-16 21:25:00,
2013-01-16 16:30:00,29.7,26.9,29.84,North,350,0.0,0.0,89,0.00,,---,0.00,VWS V13.01,2013-01-16 21:30:00,
2013-01-16 16:35:00,29.6,26.8,29.85,North,349,0.0,0.0,89,0.00,,---,0.00,VWS V13.01,2013-01-16 21:35:00,
2013-01-16 16:41:00,29.6,26.8,29.84,North,349,0.0,0.0,89,0.00,,---,0.00,VWS V13.01,2013-01-16 21:41:00,
2013-01-16 16:46:00,29.5,26.7,29.85,North,350,0.0,0.0,89,0.00,,---,0.00,VWS V13.01,2013-01-16 21:46:00,
2013-01-16 16:51:00,29.5,26.7,29.85,North,350,0.0,0.0,89,0.00,,---,0.00,VWS V13.01,2013-01-16 21:51:00,
2013-01-16 16:56:00,29.4,26.6,29.85,North,350,0.0,0.0,89,0.00,,---,0.00,VWS V13.01,2013-01-16 21:56:00,
2013-01-16 17:00:00,29.4,26.6,29.85,North,350,0.0,0.0,89,0.00,,---,0.00,VWS V13.01,2013-01-16 22:00:00,
2013-01-16 17:01:00,29.4,26.6,29.84,North,350,0.0,0.0,89,0.00,,---,0.00,VWS V13.01,2013-01-16 22:01:00,
2013-01-16 17:06:00,29.3,26.5,29.84,North,349,0.0,0.0,89,0.00,,---,0.00,VWS V13.01,2013-01-16 22:06:00,
2013-01-16 17:11:00,29.2,26.4,29.85,North,349,0.0,0.0,89,0.00,,---,0.00,VWS V13.01,2013-01-16 22:11:00,
2013-01-16 17:16:00,29.1,26.3,29.84,North,349,0.0,0.0,89,0.00,,---,0.00,VWS V13.01,2013-01-16 22:16:00,
2013-01-16 17:21:00,29.1,26.3,29.85,North,350,0.0,0.0,89,0.00,,---,0.00,VWS V13.01,2013-01-16 22:21:00,
2013-01-16 17:26:00,29.0,26.2,29.84,North,350,0.0,0.0,89,0.00,,---,0.00,VWS V13.01,2013-01-16 22:26:00,
2013-01-16 17:30:00,29.0,26.2,29.85,North,350,0.0,0.0,89,0.00,,---,0.00,VWS V13.01,2013-01-16 22:30:00,
2013-01-16 17:31:00,29.0,26.2,29.84,North,349,0.0,0.0,89,0.00,,---,0.00,VWS V13.01,2013-01-16 22:31:00,
2013-01-16 17:36:00,28.9,26.1,29.84,North,350,0.0,0.0,89,0.00,,---,0.00,VWS V13.01,2013-01-16 22:36:00,
2013-01-16 17:41:00,28.9,26.1,29.84,North,350,0.0,0.0,89,0.00,,---,0.00,VWS V13.01,2013-01-16 22:41:00,
2013-01-16 17:46:00,28.9,26.1,29.84,North,349,0.0,0.0,89,0.00,,---,0.00,VWS V13.01,2013-01-16 22:46:00,
2013-01-16 17:51:00,28.9,26.1,29.83,North,349,0.0,0.0,89,0.00,,---,0.00,VWS V13.01,2013-01-16 22:51:00,
2013-01-16 17:56:00,29.0,26.2,29.83,North,350,0.0,0.0,89,0.00,,---,0.00,VWS V13.01,2013-01-16 22:56:00,
2013-01-16 18:00:00,29.0,26.2,29.83,North,350,0.0,0.0,89,0.00,,---,0.00,VWS V13.01,2013-01-16 23:00:00,
2013-01-16 18:01:00,28.9,26.1,29.83,North,350,0.0,0.0,89,0.00,,---,0.00,VWS V13.01,2013-01-16 23:01:00,
2013-01-16 18:06:00,28.9,26.1,29.83,North,350,0.0,0.0,89,0.00,,---,0.00,VWS V13.01,2013-01-16 23:06:00,
2013-01-16 18:11:00,28.9,26.1,29.83,North,349,0.0,0.0,89,0.00,,---,0.00,VWS V13.01,2013-01-16 23:11:00,
2013-01-16 18:15:00,28.9,26.1,29.84,North,350,0.0,0.0,89,0.00,,---,0.00,VWS V13.01,2013-01-16 23:15:00,
2013-01-16 18:20:00,28.9,26.1,29.83,North,350,0.0,0.0,89,0.00,,---,0.00,VWS V13.01,2013-01-16 23:20:00,
2013-01-16 18:25:00,28.9,26.1,29.83,North,350,0.0,0.0,89,0.00,,---,0.00,VWS V13.01,2013-01-16 23:25:00,
2013-01-16 18:30:00,28.9,26.1,29.82,North,349,0.0,0.0,89,0.00,,---,0.00,VWS V13.01,2013-01-16 23:30:00,
2013-01-16 18:35:00,28.8,26.0,29.82,North,350,0.0,0.0,89,0.00,,---,0.00,VWS V13.01,2013-01-16 23:35:00,
2013-01-16 18:40:00,28.8,26.0,29.82,North,350,0.0,0.0,89,0.00,,---,0.00,VWS V13.01,2013-01-16 23:40:00,
2013-01-16 18:45:00,28.8,26.0,29.82,North,349,0.0,0.0,89,0.00,,---,0.00,VWS V13.01,2013-01-16 23:45:00,
2013-01-16 18:50:00,28.8,26.0,29.82,North,349,0.0,0.0,89,0.00,,---,0.00,VWS V13.01,2013-01-16 23:50:00,
2013-01-16 18:55:00,28.8,26.0,29.82,North,349,0.0,0.0,89,0.00,,---,0.00,VWS V13.01,2013-01-16 23:55:00,
2013-01-16 19:00:00,28.8,26.0,29.82,North,350,0.0,0.0,89,0.00,,---,0.00,VWS V13.01,2013-01-17 00:00:00,
2013-01-16 19:30:00,28.8,26.0,29.81,North,0,0.0,0.0,89,0.00,,---,0.00,VWS V13.01,2013-01-17 00:30:00,
2013-01-16 20:00:00,28.8,26.0,29.81,North,0,0.0,0.0,89,0.00,,---,0.00,VWS V13.01,2013-01-17 01:00:00,
2013-01-16 20:30:00,28.7,25.9,29.80,North,0,0.0,0.0,89,0.00,,---,0.00,VWS V13.01,2013-01-17 01:30:00,
2013-01-16 21:00:00,28.7,25.9,29.80,North,0,0.0,0.0,89,0.00,,---,0.00,VWS V13.01,2013-01-17 02:00:00,
2013-01-16 21:30:00,28.8,26.0,29.79,North,0,0.0,0.0,89,0.00,,---,0.00,VWS V13.01,2013-01-17 02:30:00,
2013-01-16 22:00:00,28.8,26.0,29.79,North,0,0.0,0.0,89,0.00,,---,0.00,VWS V13.01,2013-01-17 03:00:00,
2013-01-16 22:30:00,28.6,25.8,29.78,North,0,0.0,0.0,89,0.00,,---,0.00,VWS V13.01,2013-01-17 03:30:00,
2013-01-16 23:00:00,28.2,25.4,29.78,North,0,0.0,0.0,89,0.00,,---,0.00,VWS V13.01,2013-01-17 04:00:00,
2013-01-16 23:30:00,27.6,24.8,29.77,North,0,0.0,0.0,89,0.00,,---,0.00,VWS V13.01,2013-01-17 04:30:00,